sensor_id;sensor_type;location;lat;lon;timestamp;P1;durP1;ratioP1;P2;durP2;ratioP2
4957;SDS011;2494;51.872;9.688;2023-08-08T00:02:22;3.43;;;3.13;;
4957;SDS011;2494;51.872;9.688;2023-08-08T00:05:08;5.43;;;3.80;;
4957;SDS011;2494;51.872;9.688;2023-08-08T00:07:53;4.70;;;3.07;;
4957;SDS011;2494;51.872;9.688;2023-08-08T00:10:38;4.77;;;3.20;;
4957;SDS011;2494;51.872;9.688;2023-08-08T00:13:23;3.67;;;3.00;;
4957;SDS011;2494;51.872;9.688;2023-08-08T00:16:08;6.77;;;3.37;;
4957;SDS011;2494;51.872;9.688;2023-08-08T00:18:53;5.20;;;3.67;;
4957;SDS011;2494;51.872;9.688;2023-08-08T00:21:40;5.33;;;3.90;;
4957;SDS011;2494;51.872;9.688;2023-08-08T00:24:24;3.80;;;3.40;;
4957;SDS011;2494;51.872;9.688;2023-08-08T00:27:09;3.93;;;3.53;;
4957;SDS011;2494;51.872;9.688;2023-08-08T00:29:54;7.43;;;3.80;;
4957;SDS011;2494;51.872;9.688;2023-08-08T00:32:39;4.50;;;3.17;;
4957;SDS011;2494;51.872;9.688;2023-08-08T00:35:24;5.17;;;4.03;;
4957;SDS011;2494;51.872;9.688;2023-08-08T00:38:10;3.77;;;3.47;;
4957;SDS011;2494;51.872;9.688;2023-08-08T00:40:55;4.33;;;3.97;;
4957;SDS011;2494;51.872;9.688;2023-08-08T00:43:40;8.23;;;3.40;;
4957;SDS011;2494;51.872;9.688;2023-08-08T00:46:27;3.80;;;3.43;;
4957;SDS011;2494;51.872;9.688;2023-08-08T00:49:12;7.70;;;3.20;;
4957;SDS011;2494;51.872;9.688;2023-08-08T00:51:57;5.33;;;4.03;;
4957;SDS011;2494;51.872;9.688;2023-08-08T00:54:43;5.23;;;3.50;;
4957;SDS011;2494;51.872;9.688;2023-08-08T00:57:28;4.17;;;3.77;;
4957;SDS011;2494;51.872;9.688;2023-08-08T01:00:13;4.60;;;3.40;;
4957;SDS011;2494;51.872;9.688;2023-08-08T01:02:58;3.73;;;3.13;;
4957;SDS011;2494;51.872;9.688;2023-08-08T01:05:45;6.27;;;3.40;;
4957;SDS011;2494;51.872;9.688;2023-08-08T01:08:33;4.70;;;4.33;;
4957;SDS011;2494;51.872;9.688;2023-08-08T01:11:21;5.00;;;4.60;;
4957;SDS011;2494;51.872;9.688;2023-08-08T01:14:07;5.57;;;5.07;;
4957;SDS011;2494;51.872;9.688;2023-08-08T01:16:54;4.53;;;4.23;;
4957;SDS011;2494;51.872;9.688;2023-08-08T01:19:41;5.53;;;5.03;;
4957;SDS011;2494;51.872;9.688;2023-08-08T01:22:27;5.80;;;4.67;;
4957;SDS011;2494;51.872;9.688;2023-08-08T01:25:15;5.37;;;4.87;;
4957;SDS011;2494;51.872;9.688;2023-08-08T01:28:01;7.60;;;5.07;;
4957;SDS011;2494;51.872;9.688;2023-08-08T01:30:46;8.63;;;5.33;;
4957;SDS011;2494;51.872;9.688;2023-08-08T01:33:30;8.20;;;5.60;;
4957;SDS011;2494;51.872;9.688;2023-08-08T01:36:17;5.90;;;5.30;;
4957;SDS011;2494;51.872;9.688;2023-08-08T01:39:04;5.43;;;4.93;;
4957;SDS011;2494;51.872;9.688;2023-08-08T01:41:55;8.40;;;5.60;;
4957;SDS011;2494;51.872;9.688;2023-08-08T01:44:40;6.17;;;5.60;;
4957;SDS011;2494;51.872;9.688;2023-08-08T01:47:26;9.13;;;5.40;;
4957;SDS011;2494;51.872;9.688;2023-08-08T01:50:11;5.43;;;4.93;;
4957;SDS011;2494;51.872;9.688;2023-08-08T01:52:56;6.30;;;5.67;;
4957;SDS011;2494;51.872;9.688;2023-08-08T01:55:40;5.90;;;5.40;;
4957;SDS011;2494;51.872;9.688;2023-08-08T01:58:27;6.50;;;6.10;;
4957;SDS011;2494;51.872;9.688;2023-08-08T02:01:12;7.70;;;5.10;;
4957;SDS011;2494;51.872;9.688;2023-08-08T02:03:56;5.90;;;5.43;;
4957;SDS011;2494;51.872;9.688;2023-08-08T02:06:42;6.37;;;5.50;;
4957;SDS011;2494;51.872;9.688;2023-08-08T02:09:26;7.40;;;6.70;;
4957;SDS011;2494;51.872;9.688;2023-08-08T02:12:11;5.93;;;5.27;;
4957;SDS011;2494;51.872;9.688;2023-08-08T02:14:58;6.20;;;5.60;;
4957;SDS011;2494;51.872;9.688;2023-08-08T02:17:44;5.87;;;5.37;;
4957;SDS011;2494;51.872;9.688;2023-08-08T02:20:30;6.10;;;5.60;;
4957;SDS011;2494;51.872;9.688;2023-08-08T02:23:15;5.57;;;4.87;;
4957;SDS011;2494;51.872;9.688;2023-08-08T02:25:59;11.47;;;5.27;;
4957;SDS011;2494;51.872;9.688;2023-08-08T02:28:44;10.93;;;5.30;;
4957;SDS011;2494;51.872;9.688;2023-08-08T02:31:31;4.37;;;4.07;;
4957;SDS011;2494;51.872;9.688;2023-08-08T02:34:16;5.07;;;3.80;;
4957;SDS011;2494;51.872;9.688;2023-08-08T02:37:00;5.13;;;4.70;;
4957;SDS011;2494;51.872;9.688;2023-08-08T02:39:46;5.47;;;4.47;;
4957;SDS011;2494;51.872;9.688;2023-08-08T02:42:30;4.60;;;4.30;;
4957;SDS011;2494;51.872;9.688;2023-08-08T02:45:16;4.03;;;3.63;;
4957;SDS011;2494;51.872;9.688;2023-08-08T02:48:02;4.70;;;3.87;;
4957;SDS011;2494;51.872;9.688;2023-08-08T02:50:47;3.77;;;3.37;;
4957;SDS011;2494;51.872;9.688;2023-08-08T02:53:32;5.50;;;2.90;;
4957;SDS011;2494;51.872;9.688;2023-08-08T02:56:17;3.67;;;2.90;;
4957;SDS011;2494;51.872;9.688;2023-08-08T02:59:02;3.47;;;3.17;;
4957;SDS011;2494;51.872;9.688;2023-08-08T03:01:47;3.43;;;3.07;;
4957;SDS011;2494;51.872;9.688;2023-08-08T03:04:34;3.80;;;3.07;;
4957;SDS011;2494;51.872;9.688;2023-08-08T03:07:19;3.80;;;2.83;;
4957;SDS011;2494;51.872;9.688;2023-08-08T03:10:04;4.53;;;2.07;;
4957;SDS011;2494;51.872;9.688;2023-08-08T03:12:50;2.73;;;2.50;;
4957;SDS011;2494;51.872;9.688;2023-08-08T03:15:34;2.30;;;2.10;;
4957;SDS011;2494;51.872;9.688;2023-08-08T03:18:20;2.13;;;1.90;;
4957;SDS011;2494;51.872;9.688;2023-08-08T03:21:08;2.50;;;2.20;;
4957;SDS011;2494;51.872;9.688;2023-08-08T03:23:53;3.13;;;2.83;;
4957;SDS011;2494;51.872;9.688;2023-08-08T03:26:38;3.67;;;2.33;;
4957;SDS011;2494;51.872;9.688;2023-08-08T03:29:23;4.07;;;2.50;;
4957;SDS011;2494;51.872;9.688;2023-08-08T03:32:08;2.13;;;2.03;;
4957;SDS011;2494;51.872;9.688;2023-08-08T03:34:53;2.67;;;2.10;;
4957;SDS011;2494;51.872;9.688;2023-08-08T03:37:39;4.67;;;2.50;;
4957;SDS011;2494;51.872;9.688;2023-08-08T03:40:24;2.80;;;2.53;;
4957;SDS011;2494;51.872;9.688;2023-08-08T03:43:09;9.17;;;2.90;;
4957;SDS011;2494;51.872;9.688;2023-08-08T03:45:54;2.77;;;2.10;;
4957;SDS011;2494;51.872;9.688;2023-08-08T03:48:39;5.13;;;2.57;;
4957;SDS011;2494;51.872;9.688;2023-08-08T03:51:24;2.33;;;2.13;;
4957;SDS011;2494;51.872;9.688;2023-08-08T03:54:10;3.20;;;2.13;;
4957;SDS011;2494;51.872;9.688;2023-08-08T03:56:55;2.10;;;1.90;;
4957;SDS011;2494;51.872;9.688;2023-08-08T03:59:40;4.80;;;2.30;;
4957;SDS011;2494;51.872;9.688;2023-08-08T04:02:25;2.53;;;2.30;;
4957;SDS011;2494;51.872;9.688;2023-08-08T04:05:12;3.27;;;1.93;;
4957;SDS011;2494;51.872;9.688;2023-08-08T04:07:57;4.43;;;2.60;;
4957;SDS011;2494;51.872;9.688;2023-08-08T04:10:43;2.40;;;2.20;;
4957;SDS011;2494;51.872;9.688;2023-08-08T04:13:30;2.50;;;2.30;;
4957;SDS011;2494;51.872;9.688;2023-08-08T04:16:15;3.53;;;2.23;;
4957;SDS011;2494;51.872;9.688;2023-08-08T04:19:00;3.23;;;2.27;;
4957;SDS011;2494;51.872;9.688;2023-08-08T04:21:47;3.63;;;2.40;;
4957;SDS011;2494;51.872;9.688;2023-08-08T04:24:31;2.30;;;2.10;;
4957;SDS011;2494;51.872;9.688;2023-08-08T04:27:18;2.10;;;2.00;;
4957;SDS011;2494;51.872;9.688;2023-08-08T04:30:03;2.13;;;1.73;;
4957;SDS011;2494;51.872;9.688;2023-08-08T04:32:49;2.90;;;2.70;;
4957;SDS011;2494;51.872;9.688;2023-08-08T04:35:34;2.87;;;2.67;;
4957;SDS011;2494;51.872;9.688;2023-08-08T04:38:19;3.10;;;2.90;;
4957;SDS011;2494;51.872;9.688;2023-08-08T04:41:04;2.80;;;2.60;;
4957;SDS011;2494;51.872;9.688;2023-08-08T04:43:50;4.97;;;2.90;;
4957;SDS011;2494;51.872;9.688;2023-08-08T04:46:36;3.00;;;2.80;;
4957;SDS011;2494;51.872;9.688;2023-08-08T04:49:21;3.10;;;2.90;;
4957;SDS011;2494;51.872;9.688;2023-08-08T04:52:06;5.90;;;3.20;;
4957;SDS011;2494;51.872;9.688;2023-08-08T04:54:51;6.23;;;3.30;;
4957;SDS011;2494;51.872;9.688;2023-08-08T04:57:36;3.60;;;3.30;;
4957;SDS011;2494;51.872;9.688;2023-08-08T05:00:22;3.83;;;3.63;;
4957;SDS011;2494;51.872;9.688;2023-08-08T05:03:07;4.00;;;3.03;;
4957;SDS011;2494;51.872;9.688;2023-08-08T05:05:53;4.60;;;3.43;;
4957;SDS011;2494;51.872;9.688;2023-08-08T05:08:38;6.63;;;3.17;;
4957;SDS011;2494;51.872;9.688;2023-08-08T05:11:23;4.70;;;4.30;;
4957;SDS011;2494;51.872;9.688;2023-08-08T05:14:08;4.40;;;4.00;;
4957;SDS011;2494;51.872;9.688;2023-08-08T05:16:54;5.00;;;4.60;;
4957;SDS011;2494;51.872;9.688;2023-08-08T05:19:39;6.03;;;4.47;;
4957;SDS011;2494;51.872;9.688;2023-08-08T05:22:24;3.60;;;3.23;;
4957;SDS011;2494;51.872;9.688;2023-08-08T05:25:10;4.63;;;4.23;;
4957;SDS011;2494;51.872;9.688;2023-08-08T05:27:55;4.33;;;3.80;;
4957;SDS011;2494;51.872;9.688;2023-08-08T05:30:39;5.50;;;4.80;;
4957;SDS011;2494;51.872;9.688;2023-08-08T05:33:26;5.40;;;4.80;;
4957;SDS011;2494;51.872;9.688;2023-08-08T05:36:11;6.57;;;4.40;;
4957;SDS011;2494;51.872;9.688;2023-08-08T05:38:56;5.00;;;3.60;;
4957;SDS011;2494;51.872;9.688;2023-08-08T05:41:42;3.47;;;3.17;;
4957;SDS011;2494;51.872;9.688;2023-08-08T05:44:27;3.50;;;3.20;;
4957;SDS011;2494;51.872;9.688;2023-08-08T05:47:12;4.13;;;3.70;;
4957;SDS011;2494;51.872;9.688;2023-08-08T05:49:58;3.70;;;3.20;;
4957;SDS011;2494;51.872;9.688;2023-08-08T05:52:44;5.50;;;3.10;;
4957;SDS011;2494;51.872;9.688;2023-08-08T05:55:29;3.77;;;3.47;;
4957;SDS011;2494;51.872;9.688;2023-08-08T05:58:14;5.97;;;3.77;;
4957;SDS011;2494;51.872;9.688;2023-08-08T06:00:59;6.73;;;2.80;;
4957;SDS011;2494;51.872;9.688;2023-08-08T06:03:44;6.13;;;3.37;;
4957;SDS011;2494;51.872;9.688;2023-08-08T06:06:32;4.20;;;3.30;;
4957;SDS011;2494;51.872;9.688;2023-08-08T06:09:18;4.40;;;4.10;;
4957;SDS011;2494;51.872;9.688;2023-08-08T06:12:10;4.67;;;4.30;;
4957;SDS011;2494;51.872;9.688;2023-08-08T06:14:58;5.17;;;4.77;;
4957;SDS011;2494;51.872;9.688;2023-08-08T06:17:44;6.00;;;5.53;;
4957;SDS011;2494;51.872;9.688;2023-08-08T06:20:30;4.57;;;4.20;;
4957;SDS011;2494;51.872;9.688;2023-08-08T06:23:16;5.63;;;4.93;;
4957;SDS011;2494;51.872;9.688;2023-08-08T06:26:05;5.83;;;4.70;;
4957;SDS011;2494;51.872;9.688;2023-08-08T06:28:50;5.27;;;4.87;;
4957;SDS011;2494;51.872;9.688;2023-08-08T06:31:36;5.37;;;4.83;;
4957;SDS011;2494;51.872;9.688;2023-08-08T06:34:31;10.50;;;4.80;;
4957;SDS011;2494;51.872;9.688;2023-08-08T06:37:16;4.83;;;4.43;;
4957;SDS011;2494;51.872;9.688;2023-08-08T06:40:04;6.33;;;4.43;;
4957;SDS011;2494;51.872;9.688;2023-08-08T06:42:53;6.07;;;5.47;;
4957;SDS011;2494;51.872;9.688;2023-08-08T06:45:39;6.50;;;5.57;;
4957;SDS011;2494;51.872;9.688;2023-08-08T06:48:24;9.03;;;4.83;;
4957;SDS011;2494;51.872;9.688;2023-08-08T06:51:10;4.73;;;4.17;;
4957;SDS011;2494;51.872;9.688;2023-08-08T06:53:55;4.87;;;4.37;;
4957;SDS011;2494;51.872;9.688;2023-08-08T06:56:42;5.50;;;4.93;;
4957;SDS011;2494;51.872;9.688;2023-08-08T06:59:30;9.13;;;5.17;;
4957;SDS011;2494;51.872;9.688;2023-08-08T07:02:15;5.33;;;4.93;;
4957;SDS011;2494;51.872;9.688;2023-08-08T07:05:06;4.93;;;4.53;;
4957;SDS011;2494;51.872;9.688;2023-08-08T07:07:57;4.80;;;4.53;;
4957;SDS011;2494;51.872;9.688;2023-08-08T07:10:42;5.87;;;4.17;;
4957;SDS011;2494;51.872;9.688;2023-08-08T07:13:30;5.10;;;4.70;;
4957;SDS011;2494;51.872;9.688;2023-08-08T07:16:18;5.13;;;4.57;;
4957;SDS011;2494;51.872;9.688;2023-08-08T07:19:04;5.00;;;4.00;;
4957;SDS011;2494;51.872;9.688;2023-08-08T07:21:49;4.13;;;3.80;;
4957;SDS011;2494;51.872;9.688;2023-08-08T07:24:38;7.50;;;3.63;;
4957;SDS011;2494;51.872;9.688;2023-08-08T07:27:23;6.60;;;3.90;;
4957;SDS011;2494;51.872;9.688;2023-08-08T07:30:11;4.00;;;3.50;;
4957;SDS011;2494;51.872;9.688;2023-08-08T07:33:07;6.40;;;4.03;;
4957;SDS011;2494;51.872;9.688;2023-08-08T07:36:02;3.67;;;2.70;;
4957;SDS011;2494;51.872;9.688;2023-08-08T07:38:51;3.07;;;2.87;;
4957;SDS011;2494;51.872;9.688;2023-08-08T07:41:45;4.50;;;3.60;;
4957;SDS011;2494;51.872;9.688;2023-08-08T07:44:33;5.20;;;2.97;;
4957;SDS011;2494;51.872;9.688;2023-08-08T07:47:20;7.93;;;2.60;;
4957;SDS011;2494;51.872;9.688;2023-08-08T07:50:08;2.83;;;2.53;;
4957;SDS011;2494;51.872;9.688;2023-08-08T07:52:53;3.57;;;3.27;;
4957;SDS011;2494;51.872;9.688;2023-08-08T07:55:39;2.90;;;2.63;;
4957;SDS011;2494;51.872;9.688;2023-08-08T07:58:25;3.80;;;3.23;;
4957;SDS011;2494;51.872;9.688;2023-08-08T08:01:11;4.83;;;3.50;;
4957;SDS011;2494;51.872;9.688;2023-08-08T08:03:58;2.80;;;2.60;;
4957;SDS011;2494;51.872;9.688;2023-08-08T08:06:44;3.77;;;3.07;;
4957;SDS011;2494;51.872;9.688;2023-08-08T08:09:30;3.30;;;3.00;;
4957;SDS011;2494;51.872;9.688;2023-08-08T08:12:15;3.80;;;3.50;;
4957;SDS011;2494;51.872;9.688;2023-08-08T08:15:04;4.57;;;3.50;;
4957;SDS011;2494;51.872;9.688;2023-08-08T08:17:49;4.47;;;4.17;;
4957;SDS011;2494;51.872;9.688;2023-08-08T08:20:36;6.63;;;3.43;;
4957;SDS011;2494;51.872;9.688;2023-08-08T08:23:22;3.77;;;3.47;;
4957;SDS011;2494;51.872;9.688;2023-08-08T08:26:08;5.90;;;5.10;;
4957;SDS011;2494;51.872;9.688;2023-08-08T08:28:56;3.87;;;3.27;;
4957;SDS011;2494;51.872;9.688;2023-08-08T08:31:45;5.00;;;3.13;;
4957;SDS011;2494;51.872;9.688;2023-08-08T08:34:33;3.53;;;3.10;;
4957;SDS011;2494;51.872;9.688;2023-08-08T08:37:23;4.60;;;3.17;;
4957;SDS011;2494;51.872;9.688;2023-08-08T08:40:09;3.90;;;3.40;;
4957;SDS011;2494;51.872;9.688;2023-08-08T08:42:58;5.60;;;3.13;;
4957;SDS011;2494;51.872;9.688;2023-08-08T08:45:48;5.93;;;3.50;;
4957;SDS011;2494;51.872;9.688;2023-08-08T08:48:38;4.80;;;3.43;;
4957;SDS011;2494;51.872;9.688;2023-08-08T08:51:23;4.40;;;4.00;;
4957;SDS011;2494;51.872;9.688;2023-08-08T08:54:10;4.30;;;4.00;;
4957;SDS011;2494;51.872;9.688;2023-08-08T08:56:55;6.57;;;3.90;;
4957;SDS011;2494;51.872;9.688;2023-08-08T08:59:41;4.47;;;4.07;;
4957;SDS011;2494;51.872;9.688;2023-08-08T09:02:31;5.27;;;4.87;;
4957;SDS011;2494;51.872;9.688;2023-08-08T09:05:23;6.37;;;3.77;;
4957;SDS011;2494;51.872;9.688;2023-08-08T09:08:10;4.33;;;3.87;;
4957;SDS011;2494;51.872;9.688;2023-08-08T09:10:57;6.03;;;3.63;;
4957;SDS011;2494;51.872;9.688;2023-08-08T09:13:42;4.23;;;3.80;;
4957;SDS011;2494;51.872;9.688;2023-08-08T09:16:28;4.83;;;4.20;;
4957;SDS011;2494;51.872;9.688;2023-08-08T09:19:14;4.20;;;3.90;;
4957;SDS011;2494;51.872;9.688;2023-08-08T09:22:08;4.07;;;3.77;;
4957;SDS011;2494;51.872;9.688;2023-08-08T09:24:56;8.70;;;4.30;;
4957;SDS011;2494;51.872;9.688;2023-08-08T09:27:43;4.43;;;3.60;;
4957;SDS011;2494;51.872;9.688;2023-08-08T09:30:29;5.03;;;4.37;;
4957;SDS011;2494;51.872;9.688;2023-08-08T09:33:14;4.40;;;4.00;;
4957;SDS011;2494;51.872;9.688;2023-08-08T09:36:00;3.93;;;3.63;;
4957;SDS011;2494;51.872;9.688;2023-08-08T09:38:45;3.37;;;3.13;;
4957;SDS011;2494;51.872;9.688;2023-08-08T09:41:30;5.60;;;4.47;;
4957;SDS011;2494;51.872;9.688;2023-08-08T09:44:17;4.40;;;3.93;;
4957;SDS011;2494;51.872;9.688;2023-08-08T09:47:05;5.10;;;3.23;;
4957;SDS011;2494;51.872;9.688;2023-08-08T09:49:50;5.43;;;3.77;;
4957;SDS011;2494;51.872;9.688;2023-08-08T09:52:35;7.30;;;3.70;;
4957;SDS011;2494;51.872;9.688;2023-08-08T09:55:22;4.10;;;3.40;;
4957;SDS011;2494;51.872;9.688;2023-08-08T09:58:13;4.07;;;3.70;;
4957;SDS011;2494;51.872;9.688;2023-08-08T10:01:03;4.00;;;3.10;;
4957;SDS011;2494;51.872;9.688;2023-08-08T10:03:48;6.00;;;3.30;;
4957;SDS011;2494;51.872;9.688;2023-08-08T10:06:40;3.20;;;2.90;;
4957;SDS011;2494;51.872;9.688;2023-08-08T10:09:28;3.17;;;2.97;;
4957;SDS011;2494;51.872;9.688;2023-08-08T10:12:18;4.13;;;2.80;;
4957;SDS011;2494;51.872;9.688;2023-08-08T10:15:08;3.87;;;2.80;;
4957;SDS011;2494;51.872;9.688;2023-08-08T10:17:56;3.30;;;3.00;;
4957;SDS011;2494;51.872;9.688;2023-08-08T10:20:48;4.50;;;3.70;;
4957;SDS011;2494;51.872;9.688;2023-08-08T10:23:40;4.80;;;4.37;;
4957;SDS011;2494;51.872;9.688;2023-08-08T10:26:27;4.40;;;4.00;;
4957;SDS011;2494;51.872;9.688;2023-08-08T10:29:17;4.30;;;3.70;;
4957;SDS011;2494;51.872;9.688;2023-08-08T10:32:03;6.73;;;3.43;;
4957;SDS011;2494;51.872;9.688;2023-08-08T10:34:50;4.90;;;3.93;;
4957;SDS011;2494;51.872;9.688;2023-08-08T10:40:53;7.67;;;4.00;;
4957;SDS011;2494;51.872;9.688;2023-08-08T10:43:46;3.53;;;3.23;;
4957;SDS011;2494;51.872;9.688;2023-08-08T10:46:32;3.67;;;3.37;;
4957;SDS011;2494;51.872;9.688;2023-08-08T10:49:22;3.50;;;3.20;;
4957;SDS011;2494;51.872;9.688;2023-08-08T10:52:08;3.53;;;3.23;;
4957;SDS011;2494;51.872;9.688;2023-08-08T10:54:58;3.17;;;2.97;;
4957;SDS011;2494;51.872;9.688;2023-08-08T10:57:47;3.10;;;2.90;;
4957;SDS011;2494;51.872;9.688;2023-08-08T11:00:36;5.63;;;3.90;;
4957;SDS011;2494;51.872;9.688;2023-08-08T11:03:23;5.20;;;4.30;;
4957;SDS011;2494;51.872;9.688;2023-08-08T11:06:10;4.50;;;4.10;;
4957;SDS011;2494;51.872;9.688;2023-08-08T11:08:56;4.73;;;4.17;;
4957;SDS011;2494;51.872;9.688;2023-08-08T11:11:42;5.93;;;5.20;;
4957;SDS011;2494;51.872;9.688;2023-08-08T11:14:35;8.43;;;4.80;;
4957;SDS011;2494;51.872;9.688;2023-08-08T11:20:23;6.47;;;4.80;;
4957;SDS011;2494;51.872;9.688;2023-08-08T11:23:12;5.30;;;4.90;;
4957;SDS011;2494;51.872;9.688;2023-08-08T11:25:59;7.13;;;5.70;;
4957;SDS011;2494;51.872;9.688;2023-08-08T11:28:48;5.70;;;5.30;;
4957;SDS011;2494;51.872;9.688;2023-08-08T11:31:37;5.63;;;5.10;;
4957;SDS011;2494;51.872;9.688;2023-08-08T11:34:25;6.30;;;5.77;;
4957;SDS011;2494;51.872;9.688;2023-08-08T11:37:10;7.23;;;5.63;;
4957;SDS011;2494;51.872;9.688;2023-08-08T11:39:56;6.17;;;5.33;;
4957;SDS011;2494;51.872;9.688;2023-08-08T11:42:46;8.07;;;5.40;;
4957;SDS011;2494;51.872;9.688;2023-08-08T11:45:34;6.30;;;5.53;;
4957;SDS011;2494;51.872;9.688;2023-08-08T11:48:20;5.60;;;5.07;;
4957;SDS011;2494;51.872;9.688;2023-08-08T11:51:08;5.43;;;5.03;;
4957;SDS011;2494;51.872;9.688;2023-08-08T11:53:55;8.47;;;4.50;;
4957;SDS011;2494;51.872;9.688;2023-08-08T11:56:40;6.33;;;4.33;;
4957;SDS011;2494;51.872;9.688;2023-08-08T11:59:27;4.70;;;4.30;;
4957;SDS011;2494;51.872;9.688;2023-08-08T12:02:12;6.63;;;4.67;;
4957;SDS011;2494;51.872;9.688;2023-08-08T12:05:10;4.80;;;3.80;;
4957;SDS011;2494;51.872;9.688;2023-08-08T12:08:00;5.27;;;3.57;;
4957;SDS011;2494;51.872;9.688;2023-08-08T12:10:49;3.63;;;2.90;;
4957;SDS011;2494;51.872;9.688;2023-08-08T12:13:36;3.60;;;3.20;;
4957;SDS011;2494;51.872;9.688;2023-08-08T12:16:27;5.30;;;3.13;;
4957;SDS011;2494;51.872;9.688;2023-08-08T12:19:12;5.43;;;3.20;;
4957;SDS011;2494;51.872;9.688;2023-08-08T12:22:06;2.93;;;2.70;;
4957;SDS011;2494;51.872;9.688;2023-08-08T12:25:01;6.73;;;2.73;;
4957;SDS011;2494;51.872;9.688;2023-08-08T12:27:50;2.80;;;2.60;;
4957;SDS011;2494;51.872;9.688;2023-08-08T12:30:35;2.43;;;2.23;;
4957;SDS011;2494;51.872;9.688;2023-08-08T12:33:21;2.70;;;2.30;;
4957;SDS011;2494;51.872;9.688;2023-08-08T12:36:07;9.03;;;2.17;;
4957;SDS011;2494;51.872;9.688;2023-08-08T12:38:52;3.57;;;2.30;;
4957;SDS011;2494;51.872;9.688;2023-08-08T12:41:39;2.13;;;1.97;;
4957;SDS011;2494;51.872;9.688;2023-08-08T12:44:32;4.63;;;1.50;;
4957;SDS011;2494;51.872;9.688;2023-08-08T12:47:20;2.20;;;1.80;;
4957;SDS011;2494;51.872;9.688;2023-08-08T12:50:07;2.53;;;1.63;;
4957;SDS011;2494;51.872;9.688;2023-08-08T12:52:52;2.70;;;2.00;;
4957;SDS011;2494;51.872;9.688;2023-08-08T12:55:38;2.50;;;1.97;;
4957;SDS011;2494;51.872;9.688;2023-08-08T12:58:23;2.30;;;2.10;;
4957;SDS011;2494;51.872;9.688;2023-08-08T13:01:08;2.90;;;2.03;;
4957;SDS011;2494;51.872;9.688;2023-08-08T13:03:54;2.87;;;1.70;;
4957;SDS011;2494;51.872;9.688;2023-08-08T13:06:41;3.97;;;1.97;;
4957;SDS011;2494;51.872;9.688;2023-08-08T13:09:26;5.40;;;1.60;;
4957;SDS011;2494;51.872;9.688;2023-08-08T13:12:11;1.70;;;1.60;;
4957;SDS011;2494;51.872;9.688;2023-08-08T13:14:56;2.10;;;1.90;;
4957;SDS011;2494;51.872;9.688;2023-08-08T13:17:47;1.67;;;1.57;;
4957;SDS011;2494;51.872;9.688;2023-08-08T13:20:38;5.13;;;1.90;;
4957;SDS011;2494;51.872;9.688;2023-08-08T13:23:24;2.20;;;1.73;;
4957;SDS011;2494;51.872;9.688;2023-08-08T13:26:10;2.20;;;2.00;;
4957;SDS011;2494;51.872;9.688;2023-08-08T13:28:55;2.57;;;1.80;;
4957;SDS011;2494;51.872;9.688;2023-08-08T13:31:47;2.03;;;1.60;;
4957;SDS011;2494;51.872;9.688;2023-08-08T13:34:38;2.20;;;1.50;;
4957;SDS011;2494;51.872;9.688;2023-08-08T13:37:23;2.70;;;1.93;;
4957;SDS011;2494;51.872;9.688;2023-08-08T13:40:10;3.30;;;1.90;;
4957;SDS011;2494;51.872;9.688;2023-08-08T13:43:02;3.57;;;1.70;;
4957;SDS011;2494;51.872;9.688;2023-08-08T13:45:56;1.70;;;1.60;;
4957;SDS011;2494;51.872;9.688;2023-08-08T13:48:44;2.13;;;1.60;;
4957;SDS011;2494;51.872;9.688;2023-08-08T13:51:29;3.50;;;1.43;;
4957;SDS011;2494;51.872;9.688;2023-08-08T13:54:14;2.67;;;1.40;;
4957;SDS011;2494;51.872;9.688;2023-08-08T13:57:01;1.80;;;1.40;;
4957;SDS011;2494;51.872;9.688;2023-08-08T13:59:46;2.70;;;1.50;;
4957;SDS011;2494;51.872;9.688;2023-08-08T14:02:39;1.70;;;1.60;;
4957;SDS011;2494;51.872;9.688;2023-08-08T14:05:28;5.23;;;1.90;;
4957;SDS011;2494;51.872;9.688;2023-08-08T14:08:14;1.97;;;1.70;;
4957;SDS011;2494;51.872;9.688;2023-08-08T14:10:59;3.87;;;1.90;;
4957;SDS011;2494;51.872;9.688;2023-08-08T14:13:46;4.43;;;1.63;;
4957;SDS011;2494;51.872;9.688;2023-08-08T14:16:42;1.77;;;1.67;;
4957;SDS011;2494;51.872;9.688;2023-08-08T14:19:30;3.30;;;2.33;;
4957;SDS011;2494;51.872;9.688;2023-08-08T14:22:15;2.10;;;1.90;;
4957;SDS011;2494;51.872;9.688;2023-08-08T14:25:00;1.80;;;1.70;;
4957;SDS011;2494;51.872;9.688;2023-08-08T14:27:56;1.97;;;1.50;;
4957;SDS011;2494;51.872;9.688;2023-08-08T14:30:51;4.57;;;1.50;;
4957;SDS011;2494;51.872;9.688;2023-08-08T14:33:36;6.37;;;1.50;;
4957;SDS011;2494;51.872;9.688;2023-08-08T14:36:21;3.70;;;1.67;;
4957;SDS011;2494;51.872;9.688;2023-08-08T14:39:09;2.80;;;1.40;;
4957;SDS011;2494;51.872;9.688;2023-08-08T14:42:01;2.30;;;1.60;;
4957;SDS011;2494;51.872;9.688;2023-08-08T14:44:46;2.90;;;1.50;;
4957;SDS011;2494;51.872;9.688;2023-08-08T14:47:36;1.70;;;1.40;;
4957;SDS011;2494;51.872;9.688;2023-08-08T14:50:22;3.20;;;1.63;;
4957;SDS011;2494;51.872;9.688;2023-08-08T14:53:09;6.37;;;2.10;;
4957;SDS011;2494;51.872;9.688;2023-08-08T14:55:54;2.00;;;1.80;;
4957;SDS011;2494;51.872;9.688;2023-08-08T14:58:40;4.93;;;1.97;;
4957;SDS011;2494;51.872;9.688;2023-08-08T15:01:36;3.83;;;1.60;;
4957;SDS011;2494;51.872;9.688;2023-08-08T15:04:26;2.00;;;1.50;;
4957;SDS011;2494;51.872;9.688;2023-08-08T15:07:12;2.70;;;1.60;;
4957;SDS011;2494;51.872;9.688;2023-08-08T15:10:00;2.20;;;1.80;;
4957;SDS011;2494;51.872;9.688;2023-08-08T15:12:46;1.83;;;1.57;;
4957;SDS011;2494;51.872;9.688;2023-08-08T15:15:32;1.80;;;1.70;;
4957;SDS011;2494;51.872;9.688;2023-08-08T15:18:29;2.17;;;1.40;;
4957;SDS011;2494;51.872;9.688;2023-08-08T15:21:22;2.63;;;1.30;;
4957;SDS011;2494;51.872;9.688;2023-08-08T15:24:10;5.10;;;1.90;;
4957;SDS011;2494;51.872;9.688;2023-08-08T15:26:56;1.53;;;1.43;;
4957;SDS011;2494;51.872;9.688;2023-08-08T15:29:45;1.70;;;1.37;;
4957;SDS011;2494;51.872;9.688;2023-08-08T15:32:30;1.60;;;1.30;;
4957;SDS011;2494;51.872;9.688;2023-08-08T15:35:16;1.70;;;1.30;;
4957;SDS011;2494;51.872;9.688;2023-08-08T15:38:03;1.63;;;0.93;;
4957;SDS011;2494;51.872;9.688;2023-08-08T15:40:53;1.93;;;1.50;;
4957;SDS011;2494;51.872;9.688;2023-08-08T15:43:39;3.30;;;1.70;;
4957;SDS011;2494;51.872;9.688;2023-08-08T15:46:28;1.70;;;1.60;;
4957;SDS011;2494;51.872;9.688;2023-08-08T15:49:14;1.50;;;1.20;;
4957;SDS011;2494;51.872;9.688;2023-08-08T15:51:59;2.13;;;1.70;;
4957;SDS011;2494;51.872;9.688;2023-08-08T15:54:46;1.87;;;1.50;;
4957;SDS011;2494;51.872;9.688;2023-08-08T15:57:32;1.63;;;1.50;;
4957;SDS011;2494;51.872;9.688;2023-08-08T16:00:18;1.90;;;1.30;;
4957;SDS011;2494;51.872;9.688;2023-08-08T16:03:07;1.77;;;1.67;;
4957;SDS011;2494;51.872;9.688;2023-08-08T16:05:52;3.60;;;1.40;;
4957;SDS011;2494;51.872;9.688;2023-08-08T16:08:38;2.83;;;1.63;;
4957;SDS011;2494;51.872;9.688;2023-08-08T16:11:32;4.30;;;1.60;;
4957;SDS011;2494;51.872;9.688;2023-08-08T16:14:18;1.67;;;1.30;;
4957;SDS011;2494;51.872;9.688;2023-08-08T16:17:07;1.40;;;1.30;;
4957;SDS011;2494;51.872;9.688;2023-08-08T16:19:54;1.57;;;1.20;;
4957;SDS011;2494;51.872;9.688;2023-08-08T16:22:40;2.60;;;1.50;;
4957;SDS011;2494;51.872;9.688;2023-08-08T16:25:26;3.10;;;1.13;;
4957;SDS011;2494;51.872;9.688;2023-08-08T16:28:15;1.87;;;1.10;;
4957;SDS011;2494;51.872;9.688;2023-08-08T16:31:01;1.53;;;1.37;;
4957;SDS011;2494;51.872;9.688;2023-08-08T16:33:46;3.23;;;1.37;;
4957;SDS011;2494;51.872;9.688;2023-08-08T16:36:32;1.40;;;1.30;;
4957;SDS011;2494;51.872;9.688;2023-08-08T16:39:18;1.80;;;1.30;;
4957;SDS011;2494;51.872;9.688;2023-08-08T16:42:03;1.77;;;1.10;;
4957;SDS011;2494;51.872;9.688;2023-08-08T16:44:54;1.10;;;1.00;;
4957;SDS011;2494;51.872;9.688;2023-08-08T16:47:39;3.80;;;1.00;;
4957;SDS011;2494;51.872;9.688;2023-08-08T16:50:24;1.53;;;1.00;;
4957;SDS011;2494;51.872;9.688;2023-08-08T16:53:10;1.13;;;1.03;;
4957;SDS011;2494;51.872;9.688;2023-08-08T16:55:56;6.83;;;1.60;;
4957;SDS011;2494;51.872;9.688;2023-08-08T16:58:46;2.23;;;1.40;;
4957;SDS011;2494;51.872;9.688;2023-08-08T17:01:33;1.57;;;1.47;;
4957;SDS011;2494;51.872;9.688;2023-08-08T17:04:20;1.20;;;1.10;;
4957;SDS011;2494;51.872;9.688;2023-08-08T17:07:06;1.77;;;1.30;;
4957;SDS011;2494;51.872;9.688;2023-08-08T17:09:52;1.77;;;1.13;;
4957;SDS011;2494;51.872;9.688;2023-08-08T17:12:37;2.60;;;2.13;;
4957;SDS011;2494;51.872;9.688;2023-08-08T17:15:22;2.93;;;1.70;;
4957;SDS011;2494;51.872;9.688;2023-08-08T17:18:08;2.23;;;2.03;;
4957;SDS011;2494;51.872;9.688;2023-08-08T17:20:53;2.63;;;2.43;;
4957;SDS011;2494;51.872;9.688;2023-08-08T17:23:39;2.70;;;1.70;;